sensor_id;sensor_type;location;lat;lon;timestamp;P1;durP1;ratioP1;P2;durP2;ratioP2
26319;SDS011;14024;52.226;5.200;2024-03-17T00:00:42;14.20;;;6.25;;
26319;SDS011;14024;52.226;5.200;2024-03-17T00:03:07;16.85;;;7.22;;
26319;SDS011;14024;52.226;5.200;2024-03-17T00:05:36;16.23;;;6.88;;
26319;SDS011;14024;52.226;5.200;2024-03-17T00:08:03;16.63;;;7.55;;
26319;SDS011;14024;52.226;5.200;2024-03-17T00:10:30;20.10;;;6.93;;
26319;SDS011;14024;52.226;5.200;2024-03-17T00:12:59;15.32;;;6.55;;
26319;SDS011;14024;52.226;5.200;2024-03-17T00:15:25;17.50;;;7.32;;
26319;SDS011;14024;52.226;5.200;2024-03-17T00:17:51;22.95;;;8.13;;
26319;SDS011;14024;52.226;5.200;2024-03-17T00:20:16;18.90;;;8.13;;
26319;SDS011;14024;52.226;5.200;2024-03-17T00:22:46;17.20;;;7.38;;
26319;SDS011;14024;52.226;5.200;2024-03-17T00:25:13;20.90;;;6.95;;
26319;SDS011;14024;52.226;5.200;2024-03-17T00:27:39;24.95;;;8.50;;
26319;SDS011;14024;52.226;5.200;2024-03-17T00:30:09;22.48;;;7.70;;
26319;SDS011;14024;52.226;5.200;2024-03-17T00:32:41;17.25;;;8.18;;
26319;SDS011;14024;52.226;5.200;2024-03-17T00:35:07;16.13;;;7.85;;
26319;SDS011;14024;52.226;5.200;2024-03-17T00:37:34;16.67;;;7.80;;
26319;SDS011;14024;52.226;5.200;2024-03-17T00:40:01;25.83;;;8.98;;
26319;SDS011;14024;52.226;5.200;2024-03-17T00:42:27;23.17;;;8.48;;
26319;SDS011;14024;52.226;5.200;2024-03-17T00:44:53;19.90;;;7.90;;
26319;SDS011;14024;52.226;5.200;2024-03-17T00:47:18;24.77;;;8.13;;
26319;SDS011;14024;52.226;5.200;2024-03-17T00:49:43;19.13;;;8.27;;
26319;SDS011;14024;52.226;5.200;2024-03-17T00:52:09;14.98;;;8.13;;
26319;SDS011;14024;52.226;5.200;2024-03-17T00:54:34;15.98;;;7.97;;
26319;SDS011;14024;52.226;5.200;2024-03-17T00:56:59;19.55;;;8.18;;
26319;SDS011;14024;52.226;5.200;2024-03-17T00:59:25;17.40;;;8.65;;
26319;SDS011;14024;52.226;5.200;2024-03-17T01:01:51;19.77;;;8.90;;
26319;SDS011;14024;52.226;5.200;2024-03-17T01:04:16;24.95;;;8.63;;
26319;SDS011;14024;52.226;5.200;2024-03-17T01:06:41;20.00;;;9.35;;
26319;SDS011;14024;52.226;5.200;2024-03-17T01:09:07;16.88;;;8.35;;
26319;SDS011;14024;52.226;5.200;2024-03-17T01:11:33;20.27;;;8.45;;
26319;SDS011;14024;52.226;5.200;2024-03-17T01:13:59;17.90;;;8.30;;
26319;SDS011;14024;52.226;5.200;2024-03-17T01:16:24;21.65;;;8.85;;
26319;SDS011;14024;52.226;5.200;2024-03-17T01:18:49;19.95;;;8.10;;
26319;SDS011;14024;52.226;5.200;2024-03-17T01:21:15;14.73;;;8.35;;
26319;SDS011;14024;52.226;5.200;2024-03-17T01:23:40;21.85;;;8.77;;
26319;SDS011;14024;52.226;5.200;2024-03-17T01:26:06;14.93;;;8.27;;
26319;SDS011;14024;52.226;5.200;2024-03-17T01:28:32;17.15;;;7.70;;
26319;SDS011;14024;52.226;5.200;2024-03-17T01:30:57;18.55;;;7.38;;
26319;SDS011;14024;52.226;5.200;2024-03-17T01:33:22;23.10;;;8.70;;
26319;SDS011;14024;52.226;5.200;2024-03-17T01:35:48;20.73;;;7.88;;
26319;SDS011;14024;52.226;5.200;2024-03-17T01:38:13;21.98;;;7.47;;
26319;SDS011;14024;52.226;5.200;2024-03-17T01:40:39;20.00;;;7.32;;
26319;SDS011;14024;52.226;5.200;2024-03-17T01:43:04;19.30;;;6.90;;
26319;SDS011;14024;52.226;5.200;2024-03-17T01:45:30;14.05;;;7.20;;
26319;SDS011;14024;52.226;5.200;2024-03-17T01:47:58;17.73;;;7.25;;
26319;SDS011;14024;52.226;5.200;2024-03-17T01:50:34;15.10;;;7.35;;
26319;SDS011;14024;52.226;5.200;2024-03-17T01:53:07;24.52;;;6.95;;
26319;SDS011;14024;52.226;5.200;2024-03-17T01:55:38;24.02;;;6.97;;
26319;SDS011;14024;52.226;5.200;2024-03-17T01:58:07;17.58;;;6.28;;
26319;SDS011;14024;52.226;5.200;2024-03-17T02:00:33;19.80;;;6.47;;
26319;SDS011;14024;52.226;5.200;2024-03-17T02:03:01;14.02;;;6.97;;
26319;SDS011;14024;52.226;5.200;2024-03-17T02:05:28;17.55;;;6.57;;
26319;SDS011;14024;52.226;5.200;2024-03-17T02:07:53;14.48;;;6.20;;
26319;SDS011;14024;52.226;5.200;2024-03-17T02:10:19;18.92;;;6.45;;
26319;SDS011;14024;52.226;5.200;2024-03-17T02:12:44;16.13;;;6.70;;
26319;SDS011;14024;52.226;5.200;2024-03-17T02:15:09;15.65;;;6.35;;
26319;SDS011;14024;52.226;5.200;2024-03-17T02:17:35;18.92;;;6.53;;
26319;SDS011;14024;52.226;5.200;2024-03-17T02:20:00;12.43;;;6.47;;
26319;SDS011;14024;52.226;5.200;2024-03-17T02:22:26;13.77;;;6.30;;
26319;SDS011;14024;52.226;5.200;2024-03-17T02:24:53;17.63;;;7.00;;
26319;SDS011;14024;52.226;5.200;2024-03-17T02:27:19;18.85;;;6.43;;
26319;SDS011;14024;52.226;5.200;2024-03-17T02:29:44;19.17;;;7.10;;
26319;SDS011;14024;52.226;5.200;2024-03-17T02:32:10;16.33;;;6.57;;
26319;SDS011;14024;52.226;5.200;2024-03-17T02:34:36;17.27;;;7.32;;
26319;SDS011;14024;52.226;5.200;2024-03-17T02:37:04;17.73;;;7.43;;
26319;SDS011;14024;52.226;5.200;2024-03-17T02:39:33;15.65;;;6.93;;
26319;SDS011;14024;52.226;5.200;2024-03-17T02:42:06;17.65;;;7.70;;
26319;SDS011;14024;52.226;5.200;2024-03-17T02:46:59;19.85;;;7.40;;
26319;SDS011;14024;52.226;5.200;2024-03-17T02:49:26;17.45;;;6.60;;
26319;SDS011;14024;52.226;5.200;2024-03-17T02:51:55;21.52;;;7.93;;
26319;SDS011;14024;52.226;5.200;2024-03-17T02:54:21;16.80;;;6.57;;
26319;SDS011;14024;52.226;5.200;2024-03-17T02:56:47;19.10;;;7.32;;
26319;SDS011;14024;52.226;5.200;2024-03-17T02:59:16;18.77;;;7.32;;
26319;SDS011;14024;52.226;5.200;2024-03-17T03:01:42;15.68;;;7.63;;
26319;SDS011;14024;52.226;5.200;2024-03-17T03:04:07;23.92;;;7.15;;
26319;SDS011;14024;52.226;5.200;2024-03-17T03:06:36;15.65;;;7.18;;
26319;SDS011;14024;52.226;5.200;2024-03-17T03:09:01;22.15;;;7.13;;
26319;SDS011;14024;52.226;5.200;2024-03-17T03:11:26;16.13;;;7.53;;
26319;SDS011;14024;52.226;5.200;2024-03-17T03:13:52;15.60;;;6.60;;
26319;SDS011;14024;52.226;5.200;2024-03-17T03:16:18;19.65;;;7.07;;
26319;SDS011;14024;52.226;5.200;2024-03-17T03:18:44;14.65;;;7.00;;
26319;SDS011;14024;52.226;5.200;2024-03-17T03:21:09;11.63;;;6.25;;
26319;SDS011;14024;52.226;5.200;2024-03-17T03:23:37;14.85;;;7.22;;
26319;SDS011;14024;52.226;5.200;2024-03-17T03:26:03;16.08;;;7.22;;
26319;SDS011;14024;52.226;5.200;2024-03-17T03:28:31;13.75;;;6.57;;
26319;SDS011;14024;52.226;5.200;2024-03-17T03:30:58;14.95;;;7.25;;
26319;SDS011;14024;52.226;5.200;2024-03-17T03:33:24;15.60;;;6.90;;
26319;SDS011;14024;52.226;5.200;2024-03-17T03:35:50;13.23;;;6.65;;
26319;SDS011;14024;52.226;5.200;2024-03-17T03:38:15;19.33;;;7.22;;
26319;SDS011;14024;52.226;5.200;2024-03-17T03:40:41;13.38;;;7.80;;
26319;SDS011;14024;52.226;5.200;2024-03-17T03:43:07;12.70;;;7.40;;
26319;SDS011;14024;52.226;5.200;2024-03-17T03:45:36;17.02;;;7.90;;
26319;SDS011;14024;52.226;5.200;2024-03-17T03:48:02;17.58;;;7.50;;
26319;SDS011;14024;52.226;5.200;2024-03-17T03:50:29;15.85;;;7.72;;
26319;SDS011;14024;52.226;5.200;2024-03-17T03:52:55;19.70;;;8.57;;
26319;SDS011;14024;52.226;5.200;2024-03-17T03:55:20;18.40;;;7.97;;
26319;SDS011;14024;52.226;5.200;2024-03-17T03:57:46;14.95;;;8.05;;
26319;SDS011;14024;52.226;5.200;2024-03-17T04:00:16;14.75;;;7.75;;
26319;SDS011;14024;52.226;5.200;2024-03-17T04:02:46;21.35;;;9.05;;
26319;SDS011;14024;52.226;5.200;2024-03-17T04:05:16;17.90;;;8.60;;
26319;SDS011;14024;52.226;5.200;2024-03-17T04:07:42;16.27;;;8.68;;
26319;SDS011;14024;52.226;5.200;2024-03-17T04:10:08;12.90;;;8.05;;
26319;SDS011;14024;52.226;5.200;2024-03-17T04:12:34;18.73;;;8.65;;
26319;SDS011;14024;52.226;5.200;2024-03-17T04:15:00;19.90;;;9.48;;
26319;SDS011;14024;52.226;5.200;2024-03-17T04:17:26;19.02;;;9.15;;
26319;SDS011;14024;52.226;5.200;2024-03-17T04:19:52;23.15;;;9.80;;
26319;SDS011;14024;52.226;5.200;2024-03-17T04:22:19;17.73;;;9.30;;
26319;SDS011;14024;52.226;5.200;2024-03-17T04:24:45;18.40;;;9.70;;
26319;SDS011;14024;52.226;5.200;2024-03-17T04:27:12;20.13;;;9.45;;
26319;SDS011;14024;52.226;5.200;2024-03-17T04:29:40;22.35;;;10.13;;
26319;SDS011;14024;52.226;5.200;2024-03-17T04:32:06;19.40;;;10.00;;
26319;SDS011;14024;52.226;5.200;2024-03-17T04:34:31;22.63;;;10.32;;
26319;SDS011;14024;52.226;5.200;2024-03-17T04:36:57;21.15;;;10.10;;
26319;SDS011;14024;52.226;5.200;2024-03-17T04:39:24;20.77;;;9.68;;
26319;SDS011;14024;52.226;5.200;2024-03-17T04:41:50;21.75;;;10.52;;
26319;SDS011;14024;52.226;5.200;2024-03-17T04:44:16;20.83;;;10.35;;
26319;SDS011;14024;52.226;5.200;2024-03-17T04:46:42;21.00;;;11.23;;
26319;SDS011;14024;52.226;5.200;2024-03-17T04:49:07;16.77;;;10.07;;
26319;SDS011;14024;52.226;5.200;2024-03-17T04:51:33;19.92;;;10.95;;
26319;SDS011;14024;52.226;5.200;2024-03-17T04:53:59;20.20;;;10.02;;
26319;SDS011;14024;52.226;5.200;2024-03-17T04:56:25;19.63;;;10.90;;
26319;SDS011;14024;52.226;5.200;2024-03-17T04:58:51;19.67;;;11.00;;
26319;SDS011;14024;52.226;5.200;2024-03-17T05:01:16;20.23;;;10.65;;
26319;SDS011;14024;52.226;5.200;2024-03-17T05:03:41;21.42;;;10.90;;
26319;SDS011;14024;52.226;5.200;2024-03-17T05:06:07;20.75;;;9.63;;
26319;SDS011;14024;52.226;5.200;2024-03-17T05:08:32;20.17;;;10.60;;
26319;SDS011;14024;52.226;5.200;2024-03-17T05:11:00;20.50;;;10.52;;
26319;SDS011;14024;52.226;5.200;2024-03-17T05:13:30;17.13;;;9.20;;
26319;SDS011;14024;52.226;5.200;2024-03-17T05:15:59;19.27;;;10.00;;
26319;SDS011;14024;52.226;5.200;2024-03-17T05:18:25;20.00;;;10.05;;
26319;SDS011;14024;52.226;5.200;2024-03-17T05:20:57;19.02;;;9.50;;
26319;SDS011;14024;52.226;5.200;2024-03-17T05:23:27;23.35;;;10.55;;
26319;SDS011;14024;52.226;5.200;2024-03-17T05:25:53;20.35;;;9.35;;
26319;SDS011;14024;52.226;5.200;2024-03-17T05:28:20;20.23;;;9.98;;
26319;SDS011;14024;52.226;5.200;2024-03-17T05:30:45;19.15;;;9.73;;
26319;SDS011;14024;52.226;5.200;2024-03-17T05:33:11;17.75;;;9.75;;
26319;SDS011;14024;52.226;5.200;2024-03-17T05:35:36;18.77;;;9.75;;
26319;SDS011;14024;52.226;5.200;2024-03-17T05:38:02;19.25;;;10.00;;
26319;SDS011;14024;52.226;5.200;2024-03-17T05:40:27;17.77;;;9.20;;
26319;SDS011;14024;52.226;5.200;2024-03-17T05:42:52;15.35;;;9.02;;
26319;SDS011;14024;52.226;5.200;2024-03-17T05:45:18;17.38;;;10.23;;
26319;SDS011;14024;52.226;5.200;2024-03-17T05:47:43;16.27;;;9.40;;
26319;SDS011;14024;52.226;5.200;2024-03-17T05:50:09;17.17;;;9.10;;
26319;SDS011;14024;52.226;5.200;2024-03-17T05:52:34;20.20;;;9.88;;
26319;SDS011;14024;52.226;5.200;2024-03-17T05:54:59;20.50;;;10.35;;
26319;SDS011;14024;52.226;5.200;2024-03-17T05:57:25;17.20;;;9.57;;
26319;SDS011;14024;52.226;5.200;2024-03-17T05:59:51;22.85;;;9.57;;
26319;SDS011;14024;52.226;5.200;2024-03-17T06:02:16;18.35;;;9.45;;
26319;SDS011;14024;52.226;5.200;2024-03-17T06:04:43;17.77;;;10.13;;
26319;SDS011;14024;52.226;5.200;2024-03-17T06:07:09;20.63;;;9.75;;
26319;SDS011;14024;52.226;5.200;2024-03-17T06:09:35;16.65;;;9.70;;
26319;SDS011;14024;52.226;5.200;2024-03-17T06:12:00;19.80;;;9.68;;
26319;SDS011;14024;52.226;5.200;2024-03-17T06:14:26;17.15;;;9.30;;
26319;SDS011;14024;52.226;5.200;2024-03-17T06:16:52;18.77;;;9.43;;
26319;SDS011;14024;52.226;5.200;2024-03-17T06:19:17;21.23;;;8.98;;
26319;SDS011;14024;52.226;5.200;2024-03-17T06:21:42;15.38;;;8.38;;
26319;SDS011;14024;52.226;5.200;2024-03-17T06:24:08;17.40;;;9.43;;
26319;SDS011;14024;52.226;5.200;2024-03-17T06:26:33;16.40;;;9.25;;
26319;SDS011;14024;52.226;5.200;2024-03-17T06:29:02;21.50;;;9.27;;
26319;SDS011;14024;52.226;5.200;2024-03-17T06:31:27;18.58;;;9.60;;
26319;SDS011;14024;52.226;5.200;2024-03-17T06:33:53;18.10;;;9.10;;
26319;SDS011;14024;52.226;5.200;2024-03-17T06:36:18;16.45;;;9.18;;
26319;SDS011;14024;52.226;5.200;2024-03-17T06:38:44;17.13;;;9.80;;
26319;SDS011;14024;52.226;5.200;2024-03-17T06:41:09;19.88;;;10.55;;
26319;SDS011;14024;52.226;5.200;2024-03-17T06:43:35;16.77;;;9.90;;
26319;SDS011;14024;52.226;5.200;2024-03-17T06:46:01;15.38;;;9.32;;
26319;SDS011;14024;52.226;5.200;2024-03-17T06:48:27;16.70;;;9.65;;
26319;SDS011;14024;52.226;5.200;2024-03-17T06:50:53;17.30;;;9.35;;
26319;SDS011;14024;52.226;5.200;2024-03-17T06:53:20;16.88;;;9.32;;
26319;SDS011;14024;52.226;5.200;2024-03-17T06:55:53;15.90;;;9.95;;
26319;SDS011;14024;52.226;5.200;2024-03-17T06:58:20;19.90;;;10.18;;
26319;SDS011;14024;52.226;5.200;2024-03-17T07:00:54;21.52;;;10.30;;
26319;SDS011;14024;52.226;5.200;2024-03-17T07:03:26;17.98;;;9.85;;
26319;SDS011;14024;52.226;5.200;2024-03-17T07:05:54;22.02;;;11.38;;
26319;SDS011;14024;52.226;5.200;2024-03-17T07:08:21;17.85;;;9.98;;
26319;SDS011;14024;52.226;5.200;2024-03-17T07:11:01;17.50;;;10.20;;
26319;SDS011;14024;52.226;5.200;2024-03-17T07:13:29;18.45;;;10.70;;
26319;SDS011;14024;52.226;5.200;2024-03-17T07:15:55;16.15;;;9.65;;
26319;SDS011;14024;52.226;5.200;2024-03-17T07:18:21;17.77;;;10.52;;
26319;SDS011;14024;52.226;5.200;2024-03-17T07:20:47;17.02;;;9.98;;
26319;SDS011;14024;52.226;5.200;2024-03-17T07:23:14;20.52;;;11.00;;
26319;SDS011;14024;52.226;5.200;2024-03-17T07:25:40;17.75;;;10.68;;
26319;SDS011;14024;52.226;5.200;2024-03-17T07:28:07;17.92;;;9.98;;
26319;SDS011;14024;52.226;5.200;2024-03-17T07:30:32;18.63;;;10.38;;
26319;SDS011;14024;52.226;5.200;2024-03-17T07:32:58;17.70;;;10.65;;
26319;SDS011;14024;52.226;5.200;2024-03-17T07:35:23;16.27;;;10.35;;
26319;SDS011;14024;52.226;5.200;2024-03-17T07:37:49;17.02;;;9.93;;
26319;SDS011;14024;52.226;5.200;2024-03-17T07:40:14;22.60;;;10.68;;
26319;SDS011;14024;52.226;5.200;2024-03-17T07:42:40;16.80;;;10.35;;
26319;SDS011;14024;52.226;5.200;2024-03-17T07:45:07;21.15;;;10.25;;
26319;SDS011;14024;52.226;5.200;2024-03-17T07:47:32;16.33;;;9.63;;
26319;SDS011;14024;52.226;5.200;2024-03-17T07:50:03;14.73;;;9.82;;
26319;SDS011;14024;52.226;5.200;2024-03-17T07:52:31;17.27;;;10.50;;
26319;SDS011;14024;52.226;5.200;2024-03-17T07:54:57;20.00;;;10.50;;
26319;SDS011;14024;52.226;5.200;2024-03-17T07:57:23;18.50;;;10.77;;
26319;SDS011;14024;52.226;5.200;2024-03-17T07:59:51;18.45;;;10.88;;
26319;SDS011;14024;52.226;5.200;2024-03-17T08:02:17;17.95;;;10.68;;
26319;SDS011;14024;52.226;5.200;2024-03-17T08:04:42;19.52;;;10.80;;
26319;SDS011;14024;52.226;5.200;2024-03-17T08:07:11;18.83;;;11.00;;
26319;SDS011;14024;52.226;5.200;2024-03-17T08:09:37;19.52;;;10.57;;
26319;SDS011;14024;52.226;5.200;2024-03-17T08:12:02;16.13;;;9.90;;
26319;SDS011;14024;52.226;5.200;2024-03-17T08:14:29;16.38;;;10.25;;
26319;SDS011;14024;52.226;5.200;2024-03-17T08:16:57;16.80;;;10.55;;
26319;SDS011;14024;52.226;5.200;2024-03-17T08:19:23;19.17;;;11.23;;
26319;SDS011;14024;52.226;5.200;2024-03-17T08:21:49;18.45;;;10.93;;
26319;SDS011;14024;52.226;5.200;2024-03-17T08:24:15;17.80;;;10.50;;
26319;SDS011;14024;52.226;5.200;2024-03-17T08:26:40;16.75;;;10.25;;
26319;SDS011;14024;52.226;5.200;2024-03-17T08:29:07;15.18;;;9.65;;
26319;SDS011;14024;52.226;5.200;2024-03-17T08:31:32;16.10;;;9.77;;
26319;SDS011;14024;52.226;5.200;2024-03-17T08:33:58;16.50;;;9.60;;
26319;SDS011;14024;52.226;5.200;2024-03-17T08:36:23;16.77;;;10.32;;
26319;SDS011;14024;52.226;5.200;2024-03-17T08:38:49;18.83;;;10.77;;
26319;SDS011;14024;52.226;5.200;2024-03-17T08:41:15;18.48;;;10.57;;
26319;SDS011;14024;52.226;5.200;2024-03-17T08:43:42;16.42;;;10.32;;
26319;SDS011;14024;52.226;5.200;2024-03-17T08:46:08;19.95;;;10.18;;
26319;SDS011;14024;52.226;5.200;2024-03-17T08:48:36;18.92;;;10.30;;
26319;SDS011;14024;52.226;5.200;2024-03-17T08:51:03;24.05;;;10.73;;
26319;SDS011;14024;52.226;5.200;2024-03-17T08:53:30;18.90;;;10.68;;
26319;SDS011;14024;52.226;5.200;2024-03-17T08:55:56;18.23;;;10.50;;
26319;SDS011;14024;52.226;5.200;2024-03-17T08:58:22;19.05;;;10.05;;
26319;SDS011;14024;52.226;5.200;2024-03-17T09:00:48;13.55;;;9.25;;
26319;SDS011;14024;52.226;5.200;2024-03-17T09:03:13;15.35;;;10.40;;
26319;SDS011;14024;52.226;5.200;2024-03-17T09:05:40;21.58;;;9.60;;
26319;SDS011;14024;52.226;5.200;2024-03-17T09:08:16;19.63;;;10.77;;
26319;SDS011;14024;52.226;5.200;2024-03-17T09:10:45;17.70;;;10.57;;
26319;SDS011;14024;52.226;5.200;2024-03-17T09:13:14;17.98;;;10.95;;
26319;SDS011;14024;52.226;5.200;2024-03-17T09:18:21;23.13;;;10.75;;
26319;SDS011;14024;52.226;5.200;2024-03-17T09:20:57;27.45;;;10.88;;
26319;SDS011;14024;52.226;5.200;2024-03-17T09:23:24;15.55;;;10.52;;
26319;SDS011;14024;52.226;5.200;2024-03-17T09:25:59;22.38;;;11.23;;
26319;SDS011;14024;52.226;5.200;2024-03-17T09:28:26;17.73;;;11.02;;
26319;SDS011;14024;52.226;5.200;2024-03-17T09:30:52;27.15;;;12.07;;
26319;SDS011;14024;52.226;5.200;2024-03-17T09:33:27;16.85;;;11.32;;
26319;SDS011;14024;52.226;5.200;2024-03-17T09:35:55;19.40;;;10.90;;
26319;SDS011;14024;52.226;5.200;2024-03-17T09:40:53;18.08;;;10.57;;
26319;SDS011;14024;52.226;5.200;2024-03-17T09:43:22;17.52;;;10.25;;
26319;SDS011;14024;52.226;5.200;2024-03-17T09:45:48;22.30;;;11.55;;
26319;SDS011;14024;52.226;5.200;2024-03-17T09:48:15;17.70;;;10.57;;
26319;SDS011;14024;52.226;5.200;2024-03-17T09:50:46;16.67;;;10.38;;
26319;SDS011;14024;52.226;5.200;2024-03-17T09:53:29;17.20;;;10.38;;
26319;SDS011;14024;52.226;5.200;2024-03-17T09:55:59;16.17;;;10.13;;
26319;SDS011;14024;52.226;5.200;2024-03-17T09:58:28;16.65;;;10.25;;
26319;SDS011;14024;52.226;5.200;2024-03-17T10:00:53;21.35;;;10.70;;
26319;SDS011;14024;52.226;5.200;2024-03-17T10:06:13;16.55;;;10.68;;
26319;SDS011;14024;52.226;5.200;2024-03-17T10:08:44;15.25;;;9.68;;
26319;SDS011;14024;52.226;5.200;2024-03-17T10:11:14;17.73;;;10.45;;
26319;SDS011;14024;52.226;5.200;2024-03-17T10:13:41;16.05;;;10.02;;
26319;SDS011;14024;52.226;5.200;2024-03-17T10:16:15;23.83;;;9.75;;
26319;SDS011;14024;52.226;5.200;2024-03-17T10:18:47;15.95;;;10.10;;
26319;SDS011;14024;52.226;5.200;2024-03-17T10:21:24;20.95;;;9.32;;
26319;SDS011;14024;52.226;5.200;2024-03-17T10:24:04;18.58;;;10.50;;
26319;SDS011;14024;52.226;5.200;2024-03-17T10:26:30;16.80;;;9.70;;
26319;SDS011;14024;52.226;5.200;2024-03-17T10:28:56;14.30;;;9.65;;
26319;SDS011;14024;52.226;5.200;2024-03-17T10:31:21;16.90;;;9.50;;
26319;SDS011;14024;52.226;5.200;2024-03-17T10:33:46;16.70;;;9.45;;
26319;SDS011;14024;52.226;5.200;2024-03-17T10:36:26;15.93;;;9.85;;
26319;SDS011;14024;52.226;5.200;2024-03-17T10:38:51;17.42;;;9.10;;
26319;SDS011;14024;52.226;5.200;2024-03-17T10:41:18;19.80;;;9.85;;
26319;SDS011;14024;52.226;5.200;2024-03-17T10:43:45;16.23;;;9.52;;
26319;SDS011;14024;52.226;5.200;2024-03-17T10:46:11;16.83;;;10.23;;
26319;SDS011;14024;52.226;5.200;2024-03-17T10:48:39;16.98;;;10.35;;
26319;SDS011;14024;52.226;5.200;2024-03-17T10:51:07;14.90;;;9.07;;
26319;SDS011;14024;52.226;5.200;2024-03-17T10:53:41;17.08;;;9.27;;
26319;SDS011;14024;52.226;5.200;2024-03-17T10:56:11;14.13;;;8.85;;
26319;SDS011;14024;52.226;5.200;2024-03-17T10:58:43;14.95;;;9.35;;
26319;SDS011;14024;52.226;5.200;2024-03-17T11:01:15;13.60;;;8.27;;
26319;SDS011;14024;52.226;5.200;2024-03-17T11:03:41;15.60;;;9.25;;
26319;SDS011;14024;52.226;5.200;2024-03-17T11:06:07;15.43;;;8.75;;
26319;SDS011;14024;52.226;5.200;2024-03-17T11:08:33;14.13;;;9.63;;
26319;SDS011;14024;52.226;5.200;2024-03-17T11:11:00;16.90;;;8.85;;
26319;SDS011;14024;52.226;5.200;2024-03-17T11:13:26;13.00;;;8.18;;
26319;SDS011;14024;52.226;5.200;2024-03-17T11:15:54;19.55;;;7.93;;
26319;SDS011;14024;52.226;5.200;2024-03-17T11:18:32;13.77;;;8.50;;
26319;SDS011;14024;52.226;5.200;2024-03-17T11:21:00;15.32;;;8.02;;
26319;SDS011;14024;52.226;5.200;2024-03-17T11:23:48;16.25;;;7.60;;
26319;SDS011;14024;52.226;5.200;2024-03-17T11:26:26;13.80;;;7.28;;
26319;SDS011;14024;52.226;5.200;2024-03-17T11:28:54;11.65;;;7.07;;
26319;SDS011;14024;52.226;5.200;2024-03-17T11:31:41;12.43;;;7.22;;
26319;SDS011;14024;52.226;5.200;2024-03-17T11:36:56;14.25;;;7.30;;
26319;SDS011;14024;52.226;5.200;2024-03-17T11:39:46;13.68;;;6.63;;
26319;SDS011;14024;52.226;5.200;2024-03-17T11:42:24;13.98;;;7.28;;
26319;SDS011;14024;52.226;5.200;2024-03-17T11:44:57;11.82;;;6.70;;
26319;SDS011;14024;52.226;5.200;2024-03-17T11:49:58;15.25;;;7.45;;
26319;SDS011;14024;52.226;5.200;2024-03-17T11:52:27;11.98;;;7.38;;
26319;SDS011;14024;52.226;5.200;2024-03-17T11:54:52;17.92;;;7.90;;
26319;SDS011;14024;52.226;5.200;2024-03-17T11:57:21;15.27;;;8.20;;
26319;SDS011;14024;52.226;5.200;2024-03-17T11:59:51;14.68;;;7.93;;
26319;SDS011;14024;52.226;5.200;2024-03-17T12:02:27;13.10;;;7.72;;
26319;SDS011;14024;52.226;5.200;2024-03-17T12:05:05;15.77;;;8.45;;
26319;SDS011;14024;52.226;5.200;2024-03-17T12:07:31;18.90;;;8.75;;
26319;SDS011;14024;52.226;5.200;2024-03-17T12:09:56;21.00;;;10.13;;
26319;SDS011;14024;52.226;5.200;2024-03-17T12:12:23;24.42;;;10.00;;
26319;SDS011;14024;52.226;5.200;2024-03-17T12:14:51;18.15;;;9.15;;
26319;SDS011;14024;52.226;5.200;2024-03-17T12:17:20;16.33;;;9.50;;
26319;SDS011;14024;52.226;5.200;2024-03-17T12:19:46;19.00;;;9.63;;
26319;SDS011;14024;52.226;5.200;2024-03-17T12:22:16;20.95;;;9.65;;
26319;SDS011;14024;52.226;5.200;2024-03-17T12:24:47;17.08;;;8.82;;
26319;SDS011;14024;52.226;5.200;2024-03-17T12:27:17;18.42;;;9.75;;
26319;SDS011;14024;52.226;5.200;2024-03-17T12:29:43;14.88;;;9.80;;
26319;SDS011;14024;52.226;5.200;2024-03-17T12:34:38;17.42;;;10.27;;
26319;SDS011;14024;52.226;5.200;2024-03-17T12:37:04;15.43;;;9.68;;
26319;SDS011;14024;52.226;5.200;2024-03-17T12:39:30;19.63;;;10.70;;
26319;SDS011;14024;52.226;5.200;2024-03-17T12:42:07;18.52;;;9.30;;
26319;SDS011;14024;52.226;5.200;2024-03-17T12:44:47;19.00;;;10.05;;
26319;SDS011;14024;52.226;5.200;2024-03-17T12:47:17;20.15;;;9.95;;
26319;SDS011;14024;52.226;5.200;2024-03-17T12:49:46;17.67;;;10.18;;
26319;SDS011;14024;52.226;5.200;2024-03-17T12:52:28;17.25;;;10.05;;
26319;SDS011;14024;52.226;5.200;2024-03-17T12:54:57;16.20;;;9.52;;
26319;SDS011;14024;52.226;5.200;2024-03-17T12:57:45;15.93;;;9.88;;
26319;SDS011;14024;52.226;5.200;2024-03-17T13:00:30;16.90;;;9.02;;
26319;SDS011;14024;52.226;5.200;2024-03-17T13:03:06;18.40;;;9.73;;
26319;SDS011;14024;52.226;5.200;2024-03-17T13:05:32;16.30;;;9.90;;
26319;SDS011;14024;52.226;5.200;2024-03-17T13:08:01;21.10;;;10.65;;
26319;SDS011;14024;52.226;5.200;2024-03-17T13:10:28;15.48;;;9.27;;
26319;SDS011;14024;52.226;5.200;2024-03-17T13:13:02;18.40;;;10.10;;
26319;SDS011;14024;52.226;5.200;2024-03-17T13:15:32;17.27;;;9.85;;
26319;SDS011;14024;52.226;5.200;2024-03-17T13:18:00;20.48;;;10.00;;
26319;SDS011;14024;52.226;5.200;2024-03-17T13:20:25;17.60;;;10.18;;
26319;SDS011;14024;52.226;5.200;2024-03-17T13:22:52;19.00;;;11.00;;
26319;SDS011;14024;52.226;5.200;2024-03-17T13:25:18;17.27;;;10.35;;
26319;SDS011;14024;52.226;5.200;2024-03-17T13:27:46;17.40;;;9.60;;
26319;SDS011;14024;52.226;5.200;2024-03-17T13:30:13;21.30;;;10.73;;
26319;SDS011;14024;52.226;5.200;2024-03-17T13:32:42;20.15;;;9.32;;
26319;SDS011;14024;52.226;5.200;2024-03-17T13:35:16;14.13;;;9.60;;
26319;SDS011;14024;52.226;5.200;2024-03-17T13:40:11;21.08;;;10.15;;
26319;SDS011;14024;52.226;5.200;2024-03-17T13:42:40;18.23;;;9.98;;
26319;SDS011;14024;52.226;5.200;2024-03-17T13:45:16;18.08;;;10.25;;
26319;SDS011;14024;52.226;5.200;2024-03-17T13:47:49;16.75;;;9.73;;
26319;SDS011;14024;52.226;5.200;2024-03-17T13:50:17;20.02;;;10.65;;
26319;SDS011;14024;52.226;5.200;2024-03-17T13:52:44;19.58;;;9.60;;
26319;SDS011;14024;52.226;5.200;2024-03-17T13:55:12;16.90;;;10.32;;
26319;SDS011;14024;52.226;5.200;2024-03-17T13:57:39;15.32;;;9.32;;
26319;SDS011;14024;52.226;5.200;2024-03-17T14:00:06;16.98;;;10.40;;
26319;SDS011;14024;52.226;5.200;2024-03-17T14:02:33;16.23;;;9.65;;
26319;SDS011;14024;52.226;5.200;2024-03-17T14:04:58;17.90;;;9.32;;
26319;SDS011;14024;52.226;5.200;2024-03-17T14:07:24;20.15;;;10.00;;
26319;SDS011;14024;52.226;5.200;2024-03-17T14:09:49;18.67;;;9.98;;
26319;SDS011;14024;52.226;5.200;2024-03-17T14:12:15;13.80;;;9.63;;
26319;SDS011;14024;52.226;5.200;2024-03-17T14:14:41;17.60;;;9.80;;
26319;SDS011;14024;52.226;5.200;2024-03-17T14:17:08;19.52;;;9.90;;
26319;SDS011;14024;52.226;5.200;2024-03-17T14:19:34;19.95;;;9.77;;
26319;SDS011;14024;52.226;5.200;2024-03-17T14:22:00;16.15;;;9.50;;
26319;SDS011;14024;52.226;5.200;2024-03-17T14:24:26;16.15;;;8.27;;
26319;SDS011;14024;52.226;5.200;2024-03-17T14:26:51;15.45;;;9.55;;
26319;SDS011;14024;52.226;5.200;2024-03-17T14:29:17;17.55;;;9.13;;
26319;SDS011;14024;52.226;5.200;2024-03-17T14:31:43;13.88;;;8.77;;
26319;SDS011;14024;52.226;5.200;2024-03-17T14:34:10;19.10;;;9.60;;
26319;SDS011;14024;52.226;5.200;2024-03-17T14:36:36;17.80;;;9.32;;
26319;SDS011;14024;52.226;5.200;2024-03-17T14:39:02;15.60;;;8.90;;
26319;SDS011;14024;52.226;5.200;2024-03-17T14:41:28;15.52;;;9.27;;
26319;SDS011;14024;52.226;5.200;2024-03-17T14:43:56;15.50;;;9.27;;
26319;SDS011;14024;52.226;5.200;2024-03-17T14:46:22;16.58;;;9.52;;
26319;SDS011;14024;52.226;5.200;2024-03-17T14:48:48;16.08;;;8.95;;
26319;SDS011;14024;52.226;5.200;2024-03-17T14:51:19;16.20;;;9.75;;
26319;SDS011;14024;52.226;5.200;2024-03-17T14:53:49;15.13;;;9.25;;